createdAt,value
2023-04-18T00:01:34.953Z,2.60
2023-04-18T00:04:06.905Z,2.55
2023-04-18T00:06:35.955Z,2.40
2023-04-18T00:09:05.856Z,1.83
2023-04-18T00:11:36.608Z,2.05
2023-04-18T00:14:06.298Z,1.50
2023-04-18T00:16:34.324Z,2.05
2023-04-18T00:19:04.865Z,2.22
2023-04-18T00:21:33.051Z,1.92
2023-04-18T00:24:01.146Z,3.30
2023-04-18T00:26:30.651Z,2.03
2023-04-18T00:28:58.649Z,2.75
2023-04-18T00:31:26.712Z,2.03
2023-04-18T00:33:54.860Z,2.58
2023-04-18T00:36:22.816Z,2.80
2023-04-18T00:38:50.831Z,2.63
2023-04-18T00:41:21.079Z,2.78
2023-04-18T00:43:50.751Z,2.30
2023-04-18T00:46:18.852Z,2.03
2023-04-18T00:48:48.761Z,3.17
2023-04-18T00:51:17.232Z,1.63
2023-04-18T00:53:46.030Z,2.28
2023-04-18T00:56:14.466Z,2.30
2023-04-18T00:58:42.720Z,2.10
2023-04-18T01:01:16.399Z,2.30
2023-04-18T01:03:44.568Z,2.22
2023-04-18T01:06:12.709Z,2.20
2023-04-18T01:08:42.648Z,2.05
2023-04-18T01:11:11.022Z,2.15
2023-04-18T01:13:39.006Z,2.13
2023-04-18T01:16:07.446Z,2.42
2023-04-18T01:18:37.146Z,2.55
2023-04-18T01:21:06.251Z,2.65
2023-04-18T01:23:34.287Z,2.10
2023-04-18T01:26:03.672Z,2.22
2023-04-18T01:28:31.655Z,2.20
2023-04-18T01:30:59.874Z,2.15
2023-04-18T01:33:27.889Z,2.25
2023-04-18T01:35:55.899Z,2.25
2023-04-18T01:38:24.199Z,2.88
2023-04-18T01:40:52.279Z,2.45
2023-04-18T01:43:21.643Z,2.17
2023-04-18T01:45:49.564Z,2.13
2023-04-18T01:48:17.565Z,2.80
2023-04-18T01:50:45.606Z,1.98
2023-04-18T01:53:13.820Z,2.03
2023-04-18T01:55:41.997Z,2.20
2023-04-18T01:58:10.397Z,2.05
2023-04-18T02:00:39.739Z,1.75
2023-04-18T02:03:10.863Z,2.65
2023-04-18T02:05:38.933Z,2.00
2023-04-18T02:08:06.889Z,2.63
2023-04-18T02:10:34.821Z,2.53
2023-04-18T02:13:02.861Z,2.10
2023-04-18T02:15:30.948Z,2.08
2023-04-18T02:18:00.617Z,2.00
2023-04-18T02:20:28.951Z,1.75
2023-04-18T02:22:57.157Z,2.17
2023-04-18T02:25:27.514Z,2.63
2023-04-18T02:27:55.712Z,2.28
2023-04-18T02:30:24.420Z,2.43
2023-04-18T02:32:53.213Z,1.97
2023-04-18T02:35:22.897Z,1.93
2023-04-18T02:37:51.229Z,1.90
2023-04-18T02:40:19.378Z,2.03
2023-04-18T02:42:47.420Z,2.00
2023-04-18T02:45:15.869Z,2.30
2023-04-18T02:47:54.348Z,2.33
2023-04-18T02:50:25.697Z,2.15
2023-04-18T02:52:53.654Z,1.53
2023-04-18T02:55:22.106Z,1.80
2023-04-18T02:57:52.212Z,2.00
2023-04-18T03:00:20.462Z,1.70
2023-04-18T03:02:48.569Z,2.35
2023-04-18T03:05:17.547Z,1.83
2023-04-18T03:07:49.928Z,2.40
2023-04-18T03:10:18.359Z,2.22
2023-04-18T03:12:47.695Z,1.97
2023-04-18T03:15:15.757Z,2.13
2023-04-18T03:17:44.014Z,2.43
2023-04-18T03:20:12.744Z,1.87
2023-04-18T03:22:40.677Z,1.63
2023-04-18T03:25:11.141Z,1.73
2023-04-18T03:27:39.137Z,2.03
2023-04-18T03:30:08.249Z,1.77
2023-04-18T03:32:36.430Z,2.53
2023-04-18T03:35:04.930Z,1.93
2023-04-18T03:37:32.960Z,2.37
2023-04-18T03:40:01.232Z,2.40
2023-04-18T03:42:31.892Z,2.27
2023-04-18T03:44:59.829Z,2.00
2023-04-18T03:47:29.710Z,1.87
2023-04-18T03:49:57.834Z,1.77
2023-04-18T03:52:27.049Z,2.27
2023-04-18T03:54:56.493Z,2.42
2023-04-18T03:57:24.501Z,1.75
2023-04-18T03:59:53.800Z,2.10
2023-04-18T04:02:22.182Z,2.38
2023-04-18T04:04:50.240Z,1.67
2023-04-18T04:07:18.662Z,2.33
2023-04-18T04:09:46.625Z,2.17
2023-04-18T04:12:14.724Z,2.10
2023-04-18T04:14:42.711Z,2.00
2023-04-18T04:17:12.165Z,2.08
2023-04-18T04:19:40.188Z,1.60
2023-04-18T04:22:09.786Z,2.17
2023-04-18T04:24:38.705Z,2.30
2023-04-18T04:27:11.052Z,2.05
2023-04-18T04:29:39.733Z,2.25
2023-04-18T04:32:08.545Z,1.90
2023-04-18T04:34:37.931Z,2.23
2023-04-18T04:37:06.063Z,2.63
2023-04-18T04:39:34.057Z,2.30
2023-04-18T04:42:03.895Z,2.03
2023-04-18T04:44:31.942Z,1.73
2023-04-18T04:47:01.945Z,1.73
2023-04-18T04:49:31.323Z,2.17
2023-04-18T04:52:01.996Z,1.87
2023-04-18T04:54:30.125Z,2.03
2023-04-18T04:56:58.202Z,1.33
2023-04-18T04:59:26.214Z,2.13
2023-04-18T05:01:54.152Z,2.40
2023-04-18T05:04:22.181Z,2.03
2023-04-18T05:06:50.812Z,2.07
2023-04-18T05:09:20.280Z,1.77
2023-04-18T05:11:49.424Z,1.70
2023-04-18T05:14:17.940Z,1.40
2023-04-18T05:16:46.506Z,1.90
2023-04-18T05:19:14.614Z,2.20
2023-04-18T05:21:42.911Z,1.80
2023-04-18T05:24:11.494Z,2.07
2023-04-18T05:26:41.013Z,1.97
2023-04-18T05:29:09.029Z,1.37
2023-04-18T05:31:37.149Z,1.70
2023-04-18T05:34:05.643Z,1.60
2023-04-18T05:36:33.716Z,1.80
2023-04-18T05:39:01.734Z,1.70
2023-04-18T05:41:29.662Z,1.77
2023-04-18T05:44:05.304Z,2.80
2023-04-18T05:46:34.110Z,1.77
2023-04-18T05:49:02.531Z,2.33
2023-04-18T05:51:31.294Z,1.50
2023-04-18T05:53:59.299Z,1.50
2023-04-18T05:56:27.389Z,1.67
2023-04-18T05:58:55.906Z,3.00
2023-04-18T06:01:25.285Z,2.87
2023-04-18T06:03:53.561Z,2.30
2023-04-18T06:06:21.824Z,2.10
2023-04-18T06:08:49.836Z,2.73
2023-04-18T06:11:20.143Z,2.43
2023-04-18T06:13:48.363Z,3.03
2023-04-18T06:16:16.565Z,2.03
2023-04-18T06:18:45.942Z,2.17
2023-04-18T06:21:14.044Z,2.13
2023-04-18T06:23:41.972Z,2.70
2023-04-18T06:26:10.282Z,2.37
2023-04-18T06:28:38.265Z,2.97
2023-04-18T06:31:06.705Z,2.33
2023-04-18T06:33:35.526Z,1.73
2023-04-18T06:36:05.646Z,2.60
2023-04-18T06:38:34.092Z,1.93
2023-04-18T06:41:02.182Z,2.07
2023-04-18T06:43:30.233Z,2.40
2023-04-18T06:45:58.255Z,2.47
2023-04-18T06:48:26.283Z,2.30
2023-04-18T06:50:54.276Z,2.57
2023-04-18T06:53:23.889Z,2.10
2023-04-18T06:55:51.910Z,1.93
2023-04-18T06:58:19.943Z,2.93
2023-04-18T07:00:51.907Z,2.70
2023-04-18T07:03:20.403Z,2.80
2023-04-18T07:05:50.285Z,2.60
2023-04-18T07:08:18.352Z,2.27
2023-04-18T07:10:47.685Z,2.73
2023-04-18T07:13:15.580Z,2.70
2023-04-18T07:15:43.528Z,2.07
2023-04-18T07:18:13.255Z,2.80
2023-04-18T07:20:44.075Z,2.87
2023-04-18T07:23:12.054Z,2.60
2023-04-18T07:25:40.146Z,2.50
2023-04-18T07:28:09.829Z,2.75
2023-04-18T07:30:37.966Z,2.33
2023-04-18T07:33:06.537Z,2.47
2023-04-18T07:35:34.525Z,2.80
2023-04-18T07:38:02.582Z,2.23
2023-04-18T07:40:30.736Z,2.13
2023-04-18T07:42:59.126Z,2.00
2023-04-18T07:45:28.462Z,2.63
2023-04-18T07:47:56.735Z,2.93
2023-04-18T07:50:25.068Z,2.38
2023-04-18T07:52:53.081Z,2.10
2023-04-18T07:55:21.221Z,2.20
2023-04-18T07:57:50.687Z,2.50
2023-04-18T08:00:19.194Z,2.57
2023-04-18T08:02:48.695Z,3.20
2023-04-18T08:05:16.987Z,2.70
2023-04-18T08:07:44.982Z,2.28
2023-04-18T08:10:12.964Z,2.40
2023-04-18T08:12:41.064Z,2.20
2023-04-18T08:15:10.178Z,2.40
2023-04-18T08:17:38.932Z,2.10
2023-04-18T08:20:09.313Z,2.10
2023-04-18T08:22:46.763Z,2.63
2023-04-18T08:25:25.494Z,2.10
2023-04-18T08:27:53.531Z,3.20
2023-04-18T08:30:21.525Z,3.20
2023-04-18T08:32:49.736Z,2.75
2023-04-18T08:35:19.165Z,2.67
2023-04-18T08:37:47.369Z,2.70
2023-04-18T08:40:15.723Z,2.28
2023-04-18T08:42:45.113Z,1.95
2023-04-18T08:45:14.796Z,2.20
2023-04-18T08:47:43.397Z,2.65
2023-04-18T08:50:12.679Z,2.17
2023-04-18T08:52:47.476Z,2.53
2023-04-18T08:55:15.804Z,2.08
2023-04-18T08:57:43.896Z,3.03
2023-04-18T09:00:13.038Z,2.35
2023-04-18T09:02:43.859Z,2.03
2023-04-18T09:05:13.415Z,2.40
2023-04-18T09:07:43.334Z,2.30
2023-04-18T09:10:12.610Z,2.85
2023-04-18T09:12:50.203Z,2.78
2023-04-18T09:15:22.501Z,2.45
2023-04-18T09:17:53.434Z,2.33
2023-04-18T09:20:37.783Z,2.80
2023-04-18T09:23:10.673Z,2.53
2023-04-18T09:25:46.619Z,2.17
2023-04-18T09:28:27.028Z,2.55
2023-04-18T09:30:56.211Z,2.60
2023-04-18T09:33:29.034Z,2.35
2023-04-18T09:35:57.650Z,2.65
2023-04-18T09:41:21.395Z,2.47
2023-04-18T09:43:49.833Z,2.75
2023-04-18T09:46:18.503Z,2.05
2023-04-18T09:48:46.404Z,2.88
2023-04-18T09:51:16.925Z,1.85
2023-04-18T09:53:47.495Z,2.03
2023-04-18T09:56:26.469Z,2.53
2023-04-18T09:59:00.965Z,2.13
2023-04-18T10:01:29.942Z,2.25
2023-04-18T10:03:59.667Z,2.80
2023-04-18T10:06:30.037Z,2.78
2023-04-18T10:08:58.210Z,2.43
2023-04-18T10:11:27.768Z,2.53
2023-04-18T10:13:59.362Z,2.38
2023-04-18T10:16:28.602Z,2.10
2023-04-18T10:18:58.365Z,2.70
2023-04-18T10:21:27.599Z,2.42
2023-04-18T10:23:55.442Z,2.38
2023-04-18T10:26:50.104Z,2.05
2023-04-18T10:29:18.797Z,2.40
2023-04-18T10:31:48.123Z,2.55
2023-04-18T10:34:18.070Z,1.80
2023-04-18T10:37:06.930Z,2.10
2023-04-18T10:39:49.999Z,2.13
2023-04-18T10:42:19.519Z,1.80
2023-04-18T10:45:20.473Z,2.53
2023-04-18T10:47:48.456Z,2.03
2023-04-18T10:50:16.747Z,2.45
2023-04-18T10:52:44.894Z,2.40
2023-04-18T10:55:18.027Z,2.25
2023-04-18T10:57:48.906Z,1.90
2023-04-18T11:00:21.410Z,2.40
2023-04-18T11:02:51.656Z,2.13
2023-04-18T11:05:24.260Z,2.38
2023-04-18T11:07:52.317Z,1.80
2023-04-18T11:10:21.486Z,1.98
2023-04-18T11:12:51.178Z,2.22
2023-04-18T11:15:22.338Z,2.22
2023-04-18T11:20:24.539Z,1.80
2023-04-18T11:22:53.984Z,1.80
2023-04-18T11:25:24.990Z,1.75
2023-04-18T11:27:55.040Z,1.63
2023-04-18T11:30:23.091Z,2.15
2023-04-18T11:32:51.662Z,2.13
2023-04-18T11:35:19.790Z,2.13
2023-04-18T11:37:49.867Z,1.70
2023-04-18T11:40:17.832Z,2.25
2023-04-18T11:42:45.709Z,2.50
2023-04-18T11:45:15.892Z,1.92
2023-04-18T11:47:44.699Z,2.57
2023-04-18T11:50:14.097Z,2.13
2023-04-18T11:52:43.360Z,2.70
2023-04-18T11:55:14.038Z,2.03
2023-04-18T11:57:42.054Z,1.75
2023-04-18T12:00:12.346Z,1.73
2023-04-18T12:02:44.171Z,2.03
2023-04-18T12:05:14.915Z,1.98
2023-04-18T12:07:45.805Z,2.08
2023-04-18T12:10:25.779Z,1.92
2023-04-18T12:12:55.051Z,1.88
2023-04-18T12:15:26.898Z,1.60
2023-04-18T12:17:59.325Z,1.55
2023-04-18T12:20:36.336Z,1.40
2023-04-18T12:23:04.870Z,1.73
2023-04-18T12:25:33.460Z,1.58
2023-04-18T12:28:03.651Z,1.42
2023-04-18T12:30:37.431Z,1.20
2023-04-18T12:33:07.034Z,1.65
2023-04-18T12:35:34.920Z,1.35
2023-04-18T12:38:03.946Z,1.83
2023-04-18T12:40:31.832Z,1.17
2023-04-18T12:43:01.513Z,1.63
2023-04-18T12:45:31.139Z,1.13
2023-04-18T12:47:59.031Z,1.65
2023-04-18T12:50:28.718Z,1.35
2023-04-18T12:52:59.549Z,1.27
2023-04-18T12:55:27.784Z,1.20
2023-04-18T12:57:56.080Z,1.88
2023-04-18T13:00:25.241Z,1.05
2023-04-18T13:02:53.699Z,1.02
2023-04-18T13:05:23.322Z,1.20
2023-04-18T13:07:58.646Z,1.02
2023-04-18T13:10:29.966Z,1.20
2023-04-18T13:12:57.819Z,1.40
2023-04-18T13:15:27.222Z,1.60
2023-04-18T13:17:56.255Z,1.30
2023-04-18T13:20:24.267Z,1.17
2023-04-18T13:22:53.452Z,1.42
2023-04-18T13:25:21.609Z,1.17
2023-04-18T13:27:50.255Z,1.52
2023-04-18T13:30:18.094Z,1.15
2023-04-18T13:32:46.767Z,1.67
2023-04-18T13:35:14.624Z,1.23
2023-04-18T13:37:42.832Z,1.20
2023-04-18T13:40:13.199Z,1.20
2023-04-18T13:42:41.139Z,1.25
2023-04-18T13:45:09.684Z,1.33
2023-04-18T13:47:38.035Z,1.38
2023-04-18T13:50:07.240Z,1.50
2023-04-18T13:52:35.258Z,1.05
2023-04-18T13:55:03.763Z,1.05
2023-04-18T13:57:33.556Z,1.40
2023-04-18T14:00:01.586Z,1.35
2023-04-18T14:02:29.710Z,1.15
2023-04-18T14:04:58.271Z,1.20
2023-04-18T14:07:26.316Z,1.20
2023-04-18T14:09:54.577Z,0.90
2023-04-18T14:12:22.671Z,0.93
2023-04-18T14:14:51.817Z,1.17
2023-04-18T14:17:19.693Z,1.33
2023-04-18T14:19:48.077Z,1.02
2023-04-18T14:22:15.913Z,1.10
2023-04-18T14:24:43.775Z,1.05
2023-04-18T14:27:11.814Z,1.20
2023-04-18T14:29:39.632Z,1.30
2023-04-18T14:32:08.778Z,1.05
2023-04-18T14:34:37.375Z,1.33
2023-04-18T14:37:06.173Z,1.13
2023-04-18T14:39:34.007Z,1.02
2023-04-18T14:42:01.908Z,1.00
2023-04-18T14:44:30.676Z,1.55
2023-04-18T14:46:58.516Z,1.38
2023-04-18T14:49:27.708Z,0.88
2023-04-18T14:51:55.915Z,0.70
2023-04-18T14:54:23.771Z,1.05
2023-04-18T14:56:51.639Z,1.13
2023-04-18T14:59:19.733Z,1.17
2023-04-18T15:01:47.994Z,1.13
2023-04-18T15:04:16.266Z,1.35
2023-04-18T15:06:45.851Z,1.10
2023-04-18T15:09:15.439Z,1.08
2023-04-18T15:11:43.305Z,0.88
2023-04-18T15:14:11.120Z,1.15
2023-04-18T15:16:40.707Z,1.20
2023-04-18T15:19:08.717Z,0.98
2023-04-18T15:21:36.728Z,1.25
2023-04-18T15:24:09.019Z,1.15
2023-04-18T15:26:37.125Z,0.90
2023-04-18T15:29:05.034Z,1.20
2023-04-18T15:31:32.849Z,0.80
2023-04-18T15:34:01.099Z,1.20
2023-04-18T15:36:28.946Z,1.08
2023-04-18T15:38:56.918Z,1.00
2023-04-18T15:41:26.185Z,0.98
2023-04-18T15:43:54.223Z,0.88
2023-04-18T15:46:22.201Z,1.33
2023-04-18T15:48:50.720Z,1.00
2023-04-18T15:51:18.603Z,1.02
2023-04-18T15:53:46.524Z,1.63
2023-04-18T15:56:17.588Z,1.15
2023-04-18T15:58:47.052Z,0.90
2023-04-18T16:01:15.806Z,1.50
2023-04-18T16:03:44.102Z,1.10
2023-04-18T16:06:12.336Z,0.80
2023-04-18T16:08:40.257Z,1.13
2023-04-18T16:11:08.333Z,0.80
2023-04-18T16:13:38.278Z,1.00
2023-04-18T16:16:08.394Z,1.20
2023-04-18T16:18:36.240Z,1.08
2023-04-18T16:21:04.551Z,1.60
2023-04-18T16:23:32.888Z,1.00
2023-04-18T16:26:00.860Z,1.42
2023-04-18T16:28:30.001Z,1.00
2023-04-18T16:30:57.951Z,1.10
2023-04-18T16:33:27.300Z,1.15
2023-04-18T16:35:58.478Z,1.05
2023-04-18T16:40:56.181Z,1.35
2023-04-18T16:43:26.733Z,1.17
2023-04-18T16:45:56.254Z,1.20
2023-04-18T16:48:24.294Z,1.20
2023-04-18T16:50:53.688Z,1.45
2023-04-18T16:53:22.614Z,1.50
2023-04-18T16:55:52.219Z,1.23
2023-04-18T16:58:20.219Z,1.20
2023-04-18T17:00:48.575Z,1.30
2023-04-18T17:03:16.531Z,1.50
2023-04-18T17:05:44.566Z,1.60
2023-04-18T17:08:13.799Z,1.10
2023-04-18T17:10:41.689Z,1.73
2023-04-18T17:13:09.581Z,1.38
2023-04-18T17:15:38.191Z,1.10
2023-04-18T17:18:06.404Z,1.60
2023-04-18T17:20:36.002Z,1.05
2023-04-18T17:23:06.907Z,1.23
2023-04-18T17:25:36.516Z,1.33
2023-04-18T17:28:04.645Z,1.00
2023-04-18T17:30:32.518Z,1.05
2023-04-18T17:33:00.776Z,1.13
2023-04-18T17:35:28.686Z,1.17
2023-04-18T17:37:56.665Z,1.27
2023-04-18T17:40:24.679Z,1.15
2023-04-18T17:42:53.888Z,1.13
2023-04-18T17:45:21.794Z,1.23
2023-04-18T17:47:50.830Z,1.13
2023-04-18T17:50:18.880Z,1.40
2023-04-18T17:52:46.732Z,0.90
2023-04-18T17:55:14.824Z,0.88
2023-04-18T17:57:42.625Z,1.20
2023-04-18T18:00:13.821Z,1.45
2023-04-18T18:05:12.932Z,1.17
2023-04-18T18:07:43.028Z,0.95
2023-04-18T18:10:11.878Z,1.35
2023-04-18T18:12:40.654Z,1.55
2023-04-18T18:15:11.156Z,1.65
2023-04-18T18:17:39.032Z,1.13
2023-04-18T18:20:09.700Z,1.40
2023-04-18T18:22:38.003Z,1.05
2023-04-18T18:25:07.359Z,1.45
2023-04-18T18:27:35.352Z,1.38
2023-04-18T18:30:03.884Z,1.45
2023-04-18T18:32:33.036Z,1.40
2023-04-18T18:35:01.748Z,1.50
2023-04-18T18:37:30.863Z,1.23
2023-04-18T18:39:59.731Z,1.73
2023-04-18T18:42:27.623Z,1.65
2023-04-18T18:44:55.442Z,1.55
2023-04-18T18:47:23.365Z,1.40
2023-04-18T18:49:52.519Z,1.95
2023-04-18T18:52:20.396Z,1.20
2023-04-18T18:54:48.218Z,1.08
2023-04-18T18:57:16.088Z,2.28
2023-04-18T18:59:43.880Z,1.80
2023-04-18T19:02:11.816Z,1.65
2023-04-18T19:04:39.910Z,1.83
2023-04-18T19:07:09.238Z,2.13
2023-04-18T19:09:37.783Z,1.85
2023-04-18T19:12:06.599Z,1.58
2023-04-18T19:14:34.556Z,2.10
2023-04-18T19:17:04.867Z,1.65
2023-04-18T19:19:32.743Z,2.35
2023-04-18T19:22:01.209Z,2.35
2023-04-18T19:24:31.754Z,1.92
2023-04-18T19:26:59.925Z,2.47
2023-04-18T19:29:28.542Z,2.28
2023-04-18T19:31:57.450Z,1.88
2023-04-18T19:34:25.357Z,3.08
2023-04-18T19:36:53.165Z,1.67
2023-04-18T19:39:21.111Z,2.10
2023-04-18T19:41:50.508Z,1.92
2023-04-18T19:44:18.341Z,1.90
2023-04-18T19:46:46.272Z,2.40
2023-04-18T19:49:14.429Z,2.22
2023-04-18T19:51:42.569Z,2.03
2023-04-18T19:54:10.576Z,2.05
2023-04-18T19:56:38.472Z,2.05
2023-04-18T19:59:14.012Z,1.85
2023-04-18T20:01:42.207Z,2.05
2023-04-18T20:04:10.418Z,1.92
2023-04-18T20:06:38.306Z,2.42
2023-04-18T20:09:08.618Z,2.65
2023-04-18T20:11:36.501Z,2.92
2023-04-18T20:14:04.760Z,2.03
2023-04-18T20:16:35.586Z,1.80
2023-04-18T20:19:05.619Z,2.00
2023-04-18T20:21:33.486Z,2.22
2023-04-18T20:24:01.397Z,1.90
2023-04-18T20:26:29.425Z,2.22
2023-04-18T20:28:57.222Z,3.00
2023-04-18T20:31:25.115Z,2.30
2023-04-18T20:33:54.322Z,2.33
2023-04-18T20:36:22.129Z,2.03
2023-04-18T20:38:50.452Z,2.35
2023-04-18T20:41:20.689Z,2.05
2023-04-18T20:43:48.534Z,2.23
2023-04-18T20:46:16.498Z,2.42
2023-04-18T20:48:44.799Z,2.22
2023-04-18T20:51:13.932Z,1.80
2023-04-18T20:53:41.787Z,1.88
2023-04-18T20:56:09.622Z,2.05
2023-04-18T20:58:37.466Z,1.88
2023-04-18T21:01:06.981Z,2.03
2023-04-18T21:03:35.121Z,3.03
2023-04-18T21:06:03.315Z,2.20
2023-04-18T21:08:34.964Z,2.28
2023-04-18T21:11:03.248Z,2.20
2023-04-18T21:13:32.294Z,2.30
2023-04-18T21:16:00.719Z,2.03
2023-04-18T21:18:28.945Z,2.28
2023-04-18T21:20:56.742Z,2.50
2023-04-18T21:23:24.702Z,2.28
2023-04-18T21:25:53.840Z,2.38
2023-04-18T21:28:21.706Z,2.47
2023-04-18T21:30:49.490Z,2.42
2023-04-18T21:33:19.198Z,2.47
2023-04-18T21:35:47.033Z,1.90
2023-04-18T21:38:14.853Z,2.42
2023-04-18T21:40:42.681Z,2.28
2023-04-18T21:43:11.825Z,2.15
2023-04-18T21:45:39.712Z,2.20
2023-04-18T21:48:10.427Z,1.98
2023-04-18T21:50:38.313Z,2.00
2023-04-18T21:53:06.226Z,2.38
2023-04-18T21:55:34.039Z,2.03
2023-04-18T21:58:01.852Z,2.70
2023-04-18T22:00:30.997Z,2.28
2023-04-18T22:02:58.946Z,1.88
2023-04-18T22:05:27.933Z,2.70
2023-04-18T22:07:58.401Z,2.10
2023-04-18T22:10:26.622Z,2.20
2023-04-18T22:12:54.529Z,2.47
2023-04-18T22:15:22.476Z,2.22
2023-04-18T22:17:51.711Z,1.80
2023-04-18T22:20:19.610Z,1.83
2023-04-18T22:22:47.463Z,2.28
2023-04-18T22:25:15.340Z,2.00
2023-04-18T22:27:43.811Z,1.63
2023-04-18T22:30:13.277Z,1.80
2023-04-18T22:32:41.695Z,2.20
2023-04-18T22:35:11.338Z,2.28
2023-04-18T22:37:39.211Z,2.20
2023-04-18T22:40:08.850Z,1.80
2023-04-18T22:42:38.623Z,2.13
2023-04-18T22:45:07.802Z,2.22
2023-04-18T22:47:35.665Z,2.30
2023-04-18T22:50:03.578Z,1.85
2023-04-18T22:52:32.764Z,2.33
2023-04-18T22:55:02.189Z,2.20
2023-04-18T22:57:30.323Z,2.50
2023-04-18T22:59:58.231Z,1.80
2023-04-18T23:02:26.187Z,2.55
2023-04-18T23:04:54.164Z,2.08
2023-04-18T23:07:22.023Z,2.35
2023-04-18T23:09:51.237Z,1.65
2023-04-18T23:12:19.020Z,1.95
2023-04-18T23:14:46.846Z,2.22
2023-04-18T23:17:14.659Z,1.80
2023-04-18T23:19:42.436Z,2.15
2023-04-18T23:22:10.326Z,1.90
2023-04-18T23:24:38.178Z,1.52
2023-04-18T23:27:07.533Z,2.00
2023-04-18T23:29:38.584Z,2.10
2023-04-18T23:32:12.577Z,1.75
2023-04-18T23:34:40.448Z,1.85
2023-04-18T23:37:09.481Z,2.70
2023-04-18T23:39:37.286Z,2.55
2023-04-18T23:42:05.711Z,2.05
2023-04-18T23:44:34.880Z,2.42
2023-04-18T23:47:02.706Z,2.35
2023-04-18T23:49:30.540Z,1.70
2023-04-18T23:51:58.362Z,1.80
2023-04-18T23:54:26.344Z,2.80
2023-04-18T23:56:54.108Z,2.25
2023-04-18T23:59:21.947Z,2.20
